Terminal Aerodrome Forecast
Issued by NWS

Home | Current Version | Previous Version | Graphics & Text | Print | Product List | Glossary On
Versions: 1 2 3 4 5 6 7 8 9 10 11 12 13 14 15 16 17 18 19 20 21 22 23 24 25 26 27 28 29 30 31 32 33
541
FTUS43 KABR 141722
TAFATY
TAF
KATY 141722Z 1418/1518 03009KT P6SM BKN027 OVC035
     FM141900 01008KT P6SM BKN035
     FM142000 02008KT P6SM SCT035
     FM150300 08005KT P6SM SCT200
     FM151200 11006KT 3SM BR BKN010
     FM151300 11007KT P6SM BKN015
     FM151600 11008KT P6SM BKN050=

USA.gov is the U.S. government's official web portal to all federal, state and local government web resources and services.